Ir a foro Ir al Módulo  



logo_vatsim
logo_vatsur

 


Bienvenidos a Rionegro
Abril 2 de 2014







Marzo 27 de 2014






EVENTO INTEGRACIÓN VENEZUELA-COLOBMIA-ECUADOR
Marzo 27 de 2014

Los esperamos éste próximo Domingo 30 de Marzo en el evento de integración entre Venezuela, Colombia y Ecuador. No Falten!
A continuación las rutas recomendadas:
SVMI-SKBO: PBL UA550 KIKAS UW44 BUV BUV1A
SKBO-SVMI: ZIP1H/ZIP3J ZIP UA550 PBL
SVMI-SKCL: PBL UA550 GIR R564 MANGA MANGA7
SKCL-SVMI: ULQ5B/ULQ5C ULQ W1 ABL W17 BOG UA550 PBL
SVMI-SKRG: PBL UW40 BRM UW8 LFA UW34 CUC UG431 EJA W26 MRN MRN5A
SKRG-SVMI: DIPRA2/MRN4B DIPRA W26 EJA UG431 CUC UW34 LFA UW8 BRM UW40 PBL
SVMI-SKBQ: PBL UA552 PETER A552 ATACA ATACA1A
SKBQ-SVMI: ATAC1B PETER UA552 PBL
SVMG-SKBO: CUM1 CUM W12 BNA UW14 NEDEX UA550 KIKAS UW44 BUV BUV1A
SKBO-SVMG: ZIP1H/ZIP3J ZIP UA550 NEDEX UW14 BNA W14 ISAPO
SVMG-SKCL: CUM1 CUM W12 BNA UW14 NEDEX UA550 GIR R564 MANGA MANGA7
SKCL-SVMG: ULQ5B/ULQ5C ULQ W1 ABL W17 BOG UA550 NEDEX UW14 BNA W14 ISAPO
SVMG-SKRG: CUM1 CUM W12 BNA UW14 BRM UW8 LFA UW34 CUC UG431 EJA W26 MRN MRN5A
SKRG-SVMG: DIPRA2/MRN4B DIPRA W26 EJA UG431 CUC UW34 LFA UW8 BRM UW14 BNA W14 ISAPO
SVMG-SKBQ: CUM1 CUM W12 BNA UW14 USOTI W27 ORODI UA552 PETER A552 ATACA ATACA1A
SKBQ-SVMG: ATAC1B PETER UA552 ORODI W27 USOTI UW14 BNA W14 ISAPO
SVMC-SKBO: BOBAT1/ASIBA1/UTPIL1 BOBAT W1 STB UA567 BUV BUV1A
SKBO-SVMC: ZIP1H/ZIP3J ZIP UW9 PIE UW34 CUC UA567 STB W1 BOBAT
SVMC-SKCL: BOBAT1/ASIBA1/UTPIL1 BOBAT W1 STB UA567 BUV UG431 GIR R564 MANGA MANGA7
SKCL-SVMC: ULQ5B/ULQ5C ULQ W1 ABL W17 BOG UG431 BUV UA567 STB W1 BOBAT
SVMC-SKRG: BOBAT1/ASIBA1/UTPIL1 BOBAT W1 STB UA567 CUC UG431 EJA W26 MRN MRN5A
SKRG-SVMC: DIPRA2/MRN4B DIPRA W26 EJA UG431 CUC UA567 STB W1 BOBAT
SVMC-SKBQ: GAVIS1/UTPIL1/ASIBA1 GAVIS A552 ATACA ATACA1A
SKBQ-SVMC: ATAC1B PETER A552 GAVIS GAVIS1
SKBO-SEGU: KAMIS7A/KAMIS3B GIR UA550 ASAPO
SEGU-SKBO: SID BIVAN UA550 GIR W17 ABL ABL3B/ABL3C/ABL3D
SKBO-SEQM: KAMIS7A/KAMIS3B GIR UA550 QIT
SEQM-SKBO: ARNOK1/ARNOK1A/QITN ARNOK UA550 GIR W17 ABL ABL3B/ABL3C/ABL3D
SKCL-SEGU: CLO5D/QUILI4B QUILI G675 MER UA550 ASAPO
SEGU-SKCL: SID BIVAN UA550 MER G675 ANKAS ANKA1A/QUILI5A
SKCL-SEQM: CLO5D/QUILI4B QUILI G675 MER UA550 QIT
SEQM-SKCL: ARNOK1/ARNOK1A/QITN ARNOK UA550 MER G675 ANKAS ANKA1A/QUILI5A
SKRG-SEGU: ANTRI3 JARDI W37 PEI UG438 ULQ UQ113 BOKAN UA550 ASAPO
SEGU-SKRG: SID BIVAN UA550 BOKAN UQ113 ULQ UG438 PEI W3 MATRO MATRO3A
SKRG-SEQM: ANTRI3 JARDI W37 PEI UG438 ULQ UQ113 BOKAN UA550 QIT
SEQM-SKRG: ARNOK1/ARNOK1A/QITN ARNOK UA550 BOKAN UQ113 ULQ UG438 PEI W3 MATRO MATRO3A
SKBQ-SEGU: GAVOX1B W46 MGN UL305 GIR UA550 ASAPO
SEGU-SKBQ: SID BIVAN UA550 GIR UL305 MGN W46 GAVOX GAVOX1A
SKBQ-SEQM: GAVOX1B W46 MGN UL305 GIR UA550 QIT
SEQM-SKBQ: ARNOK1/ARNOK1A/QITN ARNOK UA550 GIR UL305 MGN W46 GAVOX GAVOX1A
SVMI-SEGU: PBL UA550 KIKAS UQ104 BOKAN UA550 ASAPO
SEGU-SVMI: SID BIVAN UA550 BOKAN UQ104 KIKAS UA550 PBL
SVMI-SEQM: PBL UA550 KIKAS UQ104 BOKAN UA550 QIT
SEQM-SVMI: ARNOK1/ARNOK1A/QITN ARNOK UA550 BOKAN UQ104 KIKAS UA550 PBL
SVMG-SEGU: CUM1 CUM W12 BNA UW14 NEDEX UA550 KIKAS UQ104 BOKAN UA550 ASAPO
SEGU-SVMG: SID BIVAN UA550 BOKAN UQ104 KIKAS UA550 NEDEX UW14 BNA W14 ISAPO
SVMG-SEQM: CUM1 CUM W12 BNA UW14 NEDEX UA550 KIKAS UQ104 BOKAN UA550 QIT
SEQM-SVMG: ARNOK1/ARNOK1A/QITN ARNOK UA550 BOKAN UQ104 KIKAS UA550 NEDEX UW14 BNA W14 ISAPO
SVMC-SEGU: BOBAT1/ASIBA1/UTPIL1 BOBAT W1 STB UA567 BUV UG431 BOG UA550 ASAPO
SEGU-SVMC: SID BIVAN UA550 BOG UG431 BUV UA567 STB W1 BOBAT BOBAT1
SVMC-SEQM: BOBAT1/ASIBA1/UTPIL1 BOBAT W1 STB UA567 BUV UG431 BOG UA550 QIT
SEQM-SVMC: ARNOK1/ARNOK1A/QITN ARNOK UA550 BOG UG431 BUV UA567 STB W1 BOBAT




 

 
Untitled Document
SKAR 210400Z 00000KT 9999 SCT022 SCT100 21/20 A3006
SKBG 210400Z 00000KT 9999 SCT015 SCT200 21/19 A3001
SKBO 210400Z 00000KT 9999 SCT020 SCT200 11/09 A3037 RMK LTNG/NW
SKBQ 210400Z 02007KT CAVOK 27/25 A2984
SKCG 210400Z 36008KT 9999 FEW018 27/24 A2985
SKCL 210400Z 04006KT 9999 FEW025 SCT100 22/20 A2998
SKPE 210400Z 10005KT 9999 FEW018 SCT080 20/18 A3009
SKRG 210400Z 00000KT 9000 BKN010 SCT080 16/15 A3033 RMK HZ